createdAt,value
2017-03-08T00:00:15.575Z,0
2017-03-08T00:01:23.659Z,0
2017-03-08T00:02:31.756Z,0
2017-03-08T00:03:39.851Z,0
2017-03-08T00:04:47.937Z,0
2017-03-08T00:05:56.027Z,0
2017-03-08T00:07:04.118Z,0
2017-03-08T00:08:12.209Z,0
2017-03-08T00:09:20.293Z,0
2017-03-08T00:10:28.388Z,0
2017-03-08T00:11:36.483Z,0
2017-03-08T00:12:44.569Z,0
2017-03-08T00:13:52.664Z,0
2017-03-08T00:15:00.754Z,0
2017-03-08T00:16:08.848Z,0
2017-03-08T00:17:16.939Z,0
2017-03-08T00:18:25.031Z,0
2017-03-08T00:19:33.117Z,0
2017-03-08T00:20:41.205Z,0
2017-03-08T00:21:49.326Z,0
2017-03-08T00:22:57.390Z,0
2017-03-08T00:24:05.479Z,0
2017-03-08T00:25:13.564Z,0
2017-03-08T00:26:21.658Z,0
2017-03-08T00:27:29.744Z,0
2017-03-08T00:28:37.833Z,0
2017-03-08T00:29:45.924Z,0
2017-03-08T00:30:54.007Z,0
2017-03-08T00:32:02.100Z,0
2017-03-08T00:33:10.187Z,0
2017-03-08T00:34:18.282Z,0
2017-03-08T00:35:26.369Z,0
2017-03-08T00:36:34.454Z,0
2017-03-08T00:37:42.547Z,0
2017-03-08T00:38:50.647Z,0
2017-03-08T00:39:58.733Z,0
2017-03-08T00:41:06.825Z,0
2017-03-08T00:42:14.928Z,0
2017-03-08T00:43:23.016Z,0
2017-03-08T00:44:31.101Z,0
2017-03-08T00:45:39.192Z,0
2017-03-08T00:46:47.288Z,0
2017-03-08T00:47:55.382Z,0
2017-03-08T00:49:03.480Z,0
2017-03-08T00:50:11.562Z,0
2017-03-08T00:51:19.652Z,0
2017-03-08T00:52:27.740Z,0
2017-03-08T00:53:35.833Z,0
2017-03-08T00:54:43.919Z,0
2017-03-08T00:55:52.004Z,0
2017-03-08T00:57:00.098Z,0
2017-03-08T00:58:08.183Z,0
2017-03-08T00:59:16.275Z,0
2017-03-08T01:00:24.361Z,0
2017-03-08T01:01:32.462Z,0
2017-03-08T01:02:40.555Z,0
2017-03-08T01:03:48.633Z,0
2017-03-08T01:04:56.729Z,0
2017-03-08T01:06:04.828Z,0
2017-03-08T01:07:12.942Z,0
2017-03-08T01:08:21.007Z,0
2017-03-08T01:09:29.093Z,0
2017-03-08T01:10:37.183Z,0
2017-03-08T01:11:45.269Z,0
2017-03-08T01:12:53.357Z,0
2017-03-08T01:14:01.450Z,0
2017-03-08T01:15:09.541Z,0
2017-03-08T01:16:17.632Z,0
2017-03-08T01:17:25.734Z,0
2017-03-08T01:18:33.822Z,0
2017-03-08T01:19:41.909Z,0
2017-03-08T01:20:50.002Z,0
2017-03-08T01:21:58.091Z,0
2017-03-08T01:23:06.179Z,0
2017-03-08T01:24:14.267Z,0
2017-03-08T01:25:22.356Z,0
2017-03-08T01:26:30.458Z,0
2017-03-08T01:27:38.541Z,0
2017-03-08T01:28:46.635Z,0
2017-03-08T01:29:54.722Z,0
2017-03-08T01:31:02.831Z,0
2017-03-08T01:32:10.911Z,0
2017-03-08T01:33:19.004Z,0
2017-03-08T01:34:27.091Z,0
2017-03-08T01:35:35.181Z,0
2017-03-08T01:37:51.370Z,0
2017-03-08T01:38:59.458Z,0
2017-03-08T01:40:07.547Z,0
2017-03-08T01:41:15.652Z,0
2017-03-08T01:42:23.744Z,0
2017-03-08T01:43:31.833Z,0
2017-03-08T01:44:39.922Z,0
2017-03-08T01:45:48.041Z,0
2017-03-08T01:46:56.124Z,0
2017-03-08T01:48:04.186Z,0
2017-03-08T01:49:12.286Z,0
2017-03-08T01:50:20.374Z,0
2017-03-08T01:51:28.464Z,0
2017-03-08T01:52:36.556Z,0
2017-03-08T01:53:44.647Z,0
2017-03-08T01:54:52.729Z,0
2017-03-08T01:56:00.820Z,0
2017-03-08T01:57:08.918Z,0
2017-03-08T01:58:17.004Z,0
2017-03-08T01:59:25.089Z,0
2017-03-08T02:00:33.189Z,0
2017-03-08T02:01:41.281Z,0
2017-03-08T02:02:49.369Z,0
2017-03-08T02:03:57.456Z,0
2017-03-08T02:05:05.550Z,0
2017-03-08T02:06:13.636Z,0
2017-03-08T02:07:21.723Z,0
2017-03-08T02:08:29.818Z,0
2017-03-08T02:09:37.909Z,0
2017-03-08T02:10:46.001Z,0
2017-03-08T02:11:54.090Z,0
2017-03-08T02:13:02.177Z,0
2017-03-08T02:14:10.269Z,0
2017-03-08T02:15:18.357Z,0
2017-03-08T02:16:26.449Z,0
2017-03-08T02:17:34.541Z,0
2017-03-08T02:18:42.626Z,0
2017-03-08T02:19:50.719Z,0
2017-03-08T02:20:58.808Z,0
2017-03-08T02:22:06.905Z,0
2017-03-08T02:23:14.997Z,0
2017-03-08T02:24:23.088Z,0
2017-03-08T02:25:31.186Z,0
2017-03-08T02:26:39.269Z,0
2017-03-08T02:27:47.365Z,0
2017-03-08T02:28:55.453Z,0
2017-03-08T02:30:03.538Z,0
2017-03-08T02:31:11.636Z,0
2017-03-08T02:32:19.732Z,0
2017-03-08T02:33:27.817Z,0
2017-03-08T02:34:35.908Z,0
2017-03-08T02:35:44.005Z,0
2017-03-08T02:36:52.100Z,0
2017-03-08T02:38:00.194Z,0
2017-03-08T02:39:08.289Z,0
2017-03-08T02:40:16.371Z,0
2017-03-08T02:41:24.457Z,0
2017-03-08T02:42:32.553Z,0
2017-03-08T02:43:40.646Z,0
2017-03-08T02:44:48.740Z,0
2017-03-08T02:45:56.821Z,0
2017-03-08T02:47:04.920Z,0
2017-03-08T02:48:13.012Z,0
2017-03-08T02:49:21.103Z,0
2017-03-08T02:50:29.188Z,0
2017-03-08T02:51:37.281Z,0
2017-03-08T02:52:45.374Z,0
2017-03-08T02:53:53.459Z,0
2017-03-08T02:55:01.548Z,0
2017-03-08T02:56:09.637Z,0
2017-03-08T02:57:17.734Z,0
2017-03-08T02:58:25.817Z,0
2017-03-08T02:59:33.910Z,0
2017-03-08T03:00:41.999Z,0
2017-03-08T03:01:50.097Z,0
2017-03-08T03:02:58.187Z,0
2017-03-08T03:04:06.271Z,0
2017-03-08T03:05:14.365Z,0
2017-03-08T03:06:22.452Z,0
2017-03-08T03:07:30.551Z,0
2017-03-08T03:08:38.644Z,0
2017-03-08T03:09:46.733Z,0
2017-03-08T03:10:54.817Z,0
2017-03-08T03:12:02.917Z,0
2017-03-08T03:13:11.019Z,0
2017-03-08T03:14:19.109Z,0
2017-03-08T03:15:27.197Z,0
2017-03-08T03:16:35.287Z,0
2017-03-08T03:17:43.373Z,0
2017-03-08T03:18:51.465Z,0
2017-03-08T03:19:59.554Z,0
2017-03-08T03:21:07.646Z,0
2017-03-08T03:22:15.740Z,0
2017-03-08T03:23:23.838Z,0
2017-03-08T03:24:31.932Z,0
2017-03-08T03:25:40.020Z,0
2017-03-08T03:26:48.109Z,0
2017-03-08T03:27:56.198Z,0
2017-03-08T03:29:04.283Z,0
2017-03-08T03:30:12.373Z,0
2017-03-08T03:31:20.467Z,0
2017-03-08T03:32:28.553Z,0
2017-03-08T03:33:36.641Z,0
2017-03-08T03:34:44.735Z,0
2017-03-08T03:35:52.835Z,0
2017-03-08T03:37:00.931Z,0
2017-03-08T03:38:09.016Z,0
2017-03-08T03:39:17.109Z,0
2017-03-08T03:40:25.197Z,0
2017-03-08T03:41:33.284Z,0
2017-03-08T03:42:41.373Z,0
2017-03-08T03:43:49.471Z,0
2017-03-08T03:44:57.560Z,0
2017-03-08T03:46:05.643Z,0
2017-03-08T03:47:13.740Z,0
2017-03-08T03:48:21.933Z,0
2017-03-08T03:49:29.932Z,0
2017-03-08T03:50:38.018Z,0
2017-03-08T03:51:46.110Z,0
2017-03-08T03:52:54.192Z,0
2017-03-08T03:54:02.287Z,0
2017-03-08T03:55:10.379Z,0
2017-03-08T03:56:18.474Z,0
2017-03-08T03:57:26.561Z,0
2017-03-08T03:58:34.656Z,0
2017-03-08T03:59:42.750Z,0
2017-03-08T04:00:50.843Z,0
2017-03-08T04:01:58.930Z,0
2017-03-08T04:03:07.056Z,0
2017-03-08T04:04:15.117Z,0
2017-03-08T04:05:23.262Z,0
2017-03-08T04:06:31.291Z,0
2017-03-08T04:07:39.380Z,0
2017-03-08T04:08:47.477Z,0
2017-03-08T04:09:55.557Z,0
2017-03-08T04:11:03.652Z,0
2017-03-08T04:12:11.737Z,0
2017-03-08T04:13:19.834Z,0
2017-03-08T04:14:27.913Z,0
2017-03-08T04:15:36.008Z,0
2017-03-08T04:16:44.093Z,0
2017-03-08T04:17:52.181Z,0
2017-03-08T04:19:00.273Z,0
2017-03-08T04:20:08.360Z,0
2017-03-08T04:21:16.446Z,0
2017-03-08T04:22:24.543Z,0
2017-03-08T04:23:32.631Z,0
2017-03-08T04:24:40.718Z,0
2017-03-08T04:25:48.808Z,0
2017-03-08T04:26:56.903Z,0
2017-03-08T04:28:04.998Z,0
2017-03-08T04:29:13.084Z,0
2017-03-08T04:30:21.177Z,0
2017-03-08T04:31:29.260Z,0
2017-03-08T04:32:37.353Z,0
2017-03-08T04:33:45.451Z,0
2017-03-08T04:34:53.541Z,0
2017-03-08T04:36:01.631Z,0
2017-03-08T04:37:09.711Z,0
2017-03-08T04:38:17.803Z,0
2017-03-08T04:39:25.898Z,0
2017-03-08T04:40:33.980Z,0
2017-03-08T04:41:42.073Z,0
2017-03-08T04:42:50.161Z,0
2017-03-08T04:43:58.249Z,0
2017-03-08T04:45:06.342Z,0
2017-03-08T04:46:14.434Z,0
2017-03-08T04:47:22.530Z,0
2017-03-08T04:48:30.617Z,0
2017-03-08T04:49:38.707Z,0
2017-03-08T04:50:46.797Z,0
2017-03-08T04:51:54.887Z,0
2017-03-08T04:53:02.970Z,0
2017-03-08T04:54:11.062Z,0
2017-03-08T04:55:19.146Z,0
2017-03-08T04:56:27.232Z,0
2017-03-08T04:57:35.347Z,0
2017-03-08T04:58:43.411Z,0
2017-03-08T04:59:51.497Z,0
2017-03-08T05:00:59.581Z,0
2017-03-08T05:02:07.676Z,0
2017-03-08T05:03:15.763Z,0
2017-03-08T05:04:23.847Z,0
2017-03-08T05:05:31.944Z,0
2017-03-08T05:06:40.030Z,0
2017-03-08T05:07:48.113Z,0
2017-03-08T05:08:56.220Z,0
2017-03-08T05:10:04.291Z,0
2017-03-08T05:11:12.379Z,0
2017-03-08T05:12:20.479Z,0
2017-03-08T05:13:28.561Z,0
2017-03-08T05:14:36.654Z,0
2017-03-08T05:15:44.744Z,0
2017-03-08T05:16:52.831Z,0
2017-03-08T05:18:00.920Z,0
2017-03-08T05:19:09.007Z,0
2017-03-08T05:20:17.095Z,0
2017-03-08T05:21:25.185Z,0
2017-03-08T05:22:33.280Z,0
2017-03-08T05:23:41.543Z,0
2017-03-08T05:24:49.452Z,0
2017-03-08T05:25:57.720Z,0
2017-03-08T05:27:05.929Z,0
2017-03-08T05:28:13.719Z,0
2017-03-08T05:29:21.809Z,0
2017-03-08T05:30:29.913Z,0
2017-03-08T05:31:37.981Z,0
2017-03-08T05:32:46.071Z,0
2017-03-08T05:33:54.168Z,0
2017-03-08T05:35:02.259Z,0
2017-03-08T05:36:10.343Z,0
2017-03-08T05:37:18.439Z,0
2017-03-08T05:38:26.530Z,0
2017-03-08T05:39:34.616Z,0
2017-03-08T05:40:42.704Z,0
2017-03-08T05:41:50.794Z,0
2017-03-08T05:42:58.881Z,0
2017-03-08T05:44:06.970Z,0
2017-03-08T05:45:15.064Z,0
2017-03-08T05:46:23.154Z,0
2017-03-08T05:47:31.239Z,0
2017-03-08T05:48:39.330Z,0
2017-03-08T05:49:47.419Z,0
2017-03-08T05:50:55.513Z,0
2017-03-08T05:52:03.595Z,0
2017-03-08T05:53:11.686Z,0
2017-03-08T05:54:19.789Z,0
2017-03-08T05:55:27.875Z,0
2017-03-08T05:56:35.966Z,0
2017-03-08T05:57:44.087Z,0
2017-03-08T05:58:52.144Z,0
2017-03-08T06:00:00.281Z,0
2017-03-08T06:01:08.331Z,0
2017-03-08T06:02:16.421Z,4
2017-03-08T06:03:24.508Z,0
2017-03-08T06:04:32.597Z,0
2017-03-08T06:05:40.690Z,4
2017-03-08T06:06:48.779Z,4
2017-03-08T06:07:56.864Z,0
2017-03-08T06:09:04.952Z,0
2017-03-08T06:10:13.039Z,0
2017-03-08T06:11:21.134Z,4
2017-03-08T06:12:29.225Z,4
2017-03-08T06:13:37.316Z,4
2017-03-08T06:14:45.408Z,4
2017-03-08T06:15:53.497Z,0
2017-03-08T06:17:01.594Z,0
2017-03-08T06:18:09.673Z,4
2017-03-08T06:19:17.763Z,4
2017-03-08T06:20:25.924Z,4
2017-03-08T06:21:33.944Z,4
2017-03-08T06:22:42.440Z,0
2017-03-08T06:23:50.114Z,0
2017-03-08T06:24:58.205Z,4
2017-03-08T06:26:06.299Z,0
2017-03-08T06:27:14.381Z,4
2017-03-08T06:28:22.477Z,4
2017-03-08T06:29:30.566Z,4
2017-03-08T06:30:38.650Z,4
2017-03-08T06:31:46.738Z,4
2017-03-08T06:32:54.830Z,4
2017-03-08T06:34:02.924Z,4
2017-03-08T06:35:11.019Z,8
2017-03-08T06:36:19.107Z,4
2017-03-08T06:37:27.198Z,8
2017-03-08T06:38:35.290Z,8
2017-03-08T06:39:43.373Z,8
2017-03-08T06:40:51.467Z,8
2017-03-08T06:41:59.552Z,8
2017-03-08T06:43:07.645Z,8
2017-03-08T06:44:15.740Z,4
2017-03-08T06:45:23.834Z,4
2017-03-08T06:46:31.920Z,4
2017-03-08T06:47:40.011Z,4
2017-03-08T06:48:48.097Z,4
2017-03-08T06:49:56.202Z,4
2017-03-08T06:51:04.283Z,4
2017-03-08T06:52:12.371Z,8
2017-03-08T06:53:20.460Z,8
2017-03-08T06:54:28.662Z,8
2017-03-08T06:55:36.669Z,8
2017-03-08T06:56:44.888Z,8
2017-03-08T06:57:52.818Z,8
2017-03-08T06:59:00.903Z,12
2017-03-08T07:00:09.002Z,12
2017-03-08T07:01:17.093Z,12
2017-03-08T07:02:25.208Z,12
2017-03-08T07:03:33.277Z,12
2017-03-08T07:04:41.449Z,12
2017-03-08T07:05:49.450Z,8
2017-03-08T07:06:57.538Z,16
2017-03-08T07:08:05.629Z,16
2017-03-08T07:09:13.719Z,16
2017-03-08T07:10:21.801Z,12
2017-03-08T07:11:29.896Z,12
2017-03-08T07:12:37.984Z,8
2017-03-08T07:13:46.078Z,12
2017-03-08T07:14:54.162Z,16
2017-03-08T07:16:02.737Z,12
2017-03-08T07:17:10.349Z,12
2017-03-08T07:18:18.432Z,12
2017-03-08T07:19:26.529Z,12
2017-03-08T07:20:34.620Z,12
2017-03-08T07:21:42.704Z,16
2017-03-08T07:22:50.871Z,12
2017-03-08T07:23:58.891Z,16
2017-03-08T07:25:06.976Z,20
2017-03-08T07:26:15.067Z,24
2017-03-08T07:27:23.158Z,24
2017-03-08T07:28:31.252Z,20
2017-03-08T07:29:39.337Z,16
2017-03-08T07:30:47.432Z,16
2017-03-08T07:31:55.593Z,20
2017-03-08T07:33:03.619Z,20
2017-03-08T07:34:11.717Z,16
2017-03-08T07:35:19.803Z,16
2017-03-08T07:36:27.893Z,16
2017-03-08T07:37:35.983Z,20
2017-03-08T07:38:44.070Z,24
2017-03-08T07:39:52.164Z,20
2017-03-08T07:41:00.259Z,20
2017-03-08T07:42:08.340Z,20
2017-03-08T07:43:16.431Z,20
2017-03-08T07:44:24.668Z,20
2017-03-08T07:46:40.719Z,20
2017-03-08T07:47:48.789Z,20
2017-03-08T07:48:56.880Z,16
2017-03-08T07:50:04.971Z,20
2017-03-08T07:51:13.056Z,20
2017-03-08T07:52:21.147Z,20
2017-03-08T07:53:29.236Z,20
2017-03-08T07:54:37.331Z,20
2017-03-08T07:55:45.422Z,20
2017-03-08T07:56:53.510Z,20
2017-03-08T07:58:01.602Z,20
2017-03-08T07:59:09.696Z,20
2017-03-08T08:00:17.791Z,24
2017-03-08T08:01:25.882Z,24
2017-03-08T08:02:33.965Z,24
2017-03-08T08:03:42.064Z,24
2017-03-08T08:04:50.153Z,24
2017-03-08T08:05:58.238Z,24
2017-03-08T08:07:06.331Z,20
2017-03-08T08:08:14.421Z,24
2017-03-08T08:09:22.508Z,24
2017-03-08T08:10:30.598Z,24
2017-03-08T08:11:38.690Z,24
2017-03-08T08:12:46.778Z,24
2017-03-08T08:13:54.867Z,24
2017-03-08T08:15:02.953Z,24
2017-03-08T08:16:11.048Z,24
2017-03-08T08:17:19.125Z,24
2017-03-08T08:18:27.214Z,24
2017-03-08T08:19:35.305Z,24
2017-03-08T08:20:43.390Z,28
2017-03-08T08:21:51.484Z,28
2017-03-08T08:22:59.579Z,24
2017-03-08T08:24:07.668Z,24
2017-03-08T08:25:15.755Z,24
2017-03-08T08:26:23.855Z,24
2017-03-08T08:27:31.943Z,24
2017-03-08T08:28:40.186Z,24
2017-03-08T08:29:48.119Z,24
2017-03-08T08:30:56.227Z,24
2017-03-08T08:32:04.299Z,24
2017-03-08T08:33:12.387Z,24
2017-03-08T08:34:20.478Z,28
2017-03-08T08:35:28.567Z,24
2017-03-08T08:36:36.655Z,24
2017-03-08T08:37:44.742Z,20
2017-03-08T08:38:53.007Z,24
2017-03-08T08:40:00.931Z,20
2017-03-08T08:41:09.017Z,24
2017-03-08T08:42:18.515Z,20
2017-03-08T08:43:25.199Z,24
2017-03-08T08:44:33.283Z,28
2017-03-08T08:45:41.376Z,32
2017-03-08T08:46:49.539Z,32
2017-03-08T08:47:57.867Z,28
2017-03-08T08:49:05.638Z,28
2017-03-08T08:50:13.728Z,40
2017-03-08T08:51:21.865Z,44
2017-03-08T08:52:29.920Z,40
2017-03-08T08:53:38.006Z,36
2017-03-08T08:54:46.100Z,36
2017-03-08T08:55:54.228Z,36
2017-03-08T08:57:02.288Z,36
2017-03-08T08:58:10.383Z,28
2017-03-08T08:59:18.480Z,36
2017-03-08T09:00:26.568Z,28
2017-03-08T09:01:34.651Z,28
2017-03-08T09:02:42.740Z,28
2017-03-08T09:03:50.830Z,28
2017-03-08T09:04:58.915Z,36
2017-03-08T09:06:07.011Z,32
2017-03-08T09:07:15.098Z,32
2017-03-08T09:08:23.185Z,32
2017-03-08T09:09:31.898Z,36
2017-03-08T09:10:39.363Z,40
2017-03-08T09:11:47.457Z,40
2017-03-08T09:12:55.557Z,36
2017-03-08T09:14:03.641Z,36
2017-03-08T09:15:11.724Z,32
2017-03-08T09:16:19.813Z,40
2017-03-08T09:17:27.902Z,36
2017-03-08T09:18:35.988Z,32
2017-03-08T09:19:44.073Z,32
2017-03-08T09:20:52.162Z,36
2017-03-08T09:22:00.249Z,32
2017-03-08T09:23:08.340Z,28
2017-03-08T09:24:16.427Z,32
2017-03-08T09:25:24.520Z,36
2017-03-08T09:26:32.602Z,32
2017-03-08T09:27:40.697Z,32
2017-03-08T09:28:48.789Z,32
2017-03-08T09:29:56.877Z,36
2017-03-08T09:31:04.966Z,36
2017-03-08T09:32:13.051Z,40
2017-03-08T09:33:21.143Z,44
2017-03-08T09:34:29.231Z,40
2017-03-08T09:35:37.318Z,44
2017-03-08T09:36:45.667Z,40
2017-03-08T09:37:54.072Z,44
2017-03-08T09:39:01.597Z,44
2017-03-08T09:40:09.665Z,44
2017-03-08T09:41:17.756Z,44
2017-03-08T09:42:25.850Z,44
2017-03-08T09:43:33.929Z,44
2017-03-08T09:44:42.017Z,44
2017-03-08T09:45:50.108Z,44
2017-03-08T09:46:58.195Z,48
2017-03-08T09:48:06.282Z,40
2017-03-08T09:49:14.389Z,40
2017-03-08T09:50:22.467Z,40
2017-03-08T09:51:30.555Z,40
2017-03-08T09:52:38.637Z,44
2017-03-08T09:53:46.735Z,44
2017-03-08T09:54:54.858Z,44
2017-03-08T09:56:02.910Z,52
2017-03-08T09:57:11.013Z,60
2017-03-08T09:58:19.089Z,56
2017-03-08T09:59:27.181Z,48
2017-03-08T10:00:35.264Z,48
2017-03-08T10:01:43.356Z,52
2017-03-08T10:02:51.445Z,64
2017-03-08T10:03:59.534Z,56
2017-03-08T10:05:07.873Z,52
2017-03-08T10:06:15.723Z,64
2017-03-08T10:07:23.818Z,68
2017-03-08T10:08:31.899Z,48
2017-03-08T10:09:40.037Z,72
2017-03-08T10:10:48.079Z,56
2017-03-08T10:11:56.210Z,52
2017-03-08T10:13:04.907Z,60
2017-03-08T10:14:12.347Z,52
2017-03-08T10:15:20.442Z,44
2017-03-08T10:16:28.519Z,44
2017-03-08T10:17:36.616Z,44
2017-03-08T10:18:44.695Z,40
2017-03-08T10:19:52.785Z,40
2017-03-08T10:21:00.879Z,52
2017-03-08T10:22:08.965Z,48
2017-03-08T10:23:17.073Z,52
2017-03-08T10:24:25.142Z,60
2017-03-08T10:25:33.237Z,68
2017-03-08T10:26:41.329Z,68
2017-03-08T10:27:49.413Z,64
2017-03-08T10:28:57.503Z,100
2017-03-08T10:30:05.595Z,92
2017-03-08T10:31:13.832Z,80
2017-03-08T10:32:21.882Z,60
2017-03-08T10:33:29.871Z,52
2017-03-08T10:34:37.972Z,56
2017-03-08T10:35:46.044Z,52
2017-03-08T10:36:54.144Z,52
2017-03-08T10:38:02.228Z,56
2017-03-08T10:39:10.317Z,56
2017-03-08T10:40:18.411Z,56
2017-03-08T10:41:26.505Z,60
2017-03-08T10:42:34.588Z,64
2017-03-08T10:43:42.675Z,60
2017-03-08T10:44:50.773Z,60
2017-03-08T10:45:58.865Z,56
2017-03-08T10:47:06.974Z,52
2017-03-08T10:48:15.043Z,52
2017-03-08T10:49:23.135Z,56
2017-03-08T10:50:31.222Z,52
2017-03-08T10:51:39.307Z,48
2017-03-08T10:52:47.399Z,48
2017-03-08T10:53:55.486Z,48
2017-03-08T10:55:03.573Z,48
2017-03-08T10:56:11.667Z,56
2017-03-08T10:57:19.758Z,52
2017-03-08T10:58:27.841Z,48
2017-03-08T10:59:35.928Z,48
2017-03-08T11:00:44.028Z,52
2017-03-08T11:01:52.117Z,60
2017-03-08T11:03:00.207Z,60
2017-03-08T11:04:08.295Z,68
2017-03-08T11:05:16.382Z,60
2017-03-08T11:06:24.465Z,56
2017-03-08T11:07:32.554Z,60
2017-03-08T11:08:40.644Z,68
2017-03-08T11:09:48.735Z,60
2017-03-08T11:10:56.818Z,56
2017-03-08T11:12:04.911Z,52
2017-03-08T11:13:13.004Z,56
2017-03-08T11:14:21.092Z,52
2017-03-08T11:15:29.183Z,56
2017-03-08T11:16:37.276Z,48
2017-03-08T11:17:45.369Z,52
2017-03-08T11:18:53.450Z,48
2017-03-08T11:20:01.545Z,48
2017-03-08T11:21:09.629Z,48
2017-03-08T11:22:17.717Z,48
2017-03-08T11:23:25.815Z,40
2017-03-08T11:24:33.907Z,40
2017-03-08T11:25:42.003Z,44
2017-03-08T11:26:50.086Z,48
2017-03-08T11:27:58.190Z,44
2017-03-08T11:29:06.280Z,48
2017-03-08T11:30:14.368Z,52
2017-03-08T11:31:22.452Z,52
2017-03-08T11:32:30.546Z,52
2017-03-08T11:33:40.199Z,52
2017-03-08T11:34:46.724Z,52
2017-03-08T11:35:54.823Z,48
2017-03-08T11:37:02.906Z,52
2017-03-08T11:38:10.995Z,52
2017-03-08T11:39:19.084Z,52
2017-03-08T11:40:27.168Z,52
2017-03-08T11:41:35.260Z,48
2017-03-08T11:42:43.341Z,52
2017-03-08T11:43:51.434Z,52
2017-03-08T11:44:59.527Z,52
2017-03-08T11:46:07.610Z,52
2017-03-08T11:47:15.701Z,56
2017-03-08T11:48:23.794Z,56
2017-03-08T11:49:31.931Z,52
2017-03-08T11:50:39.976Z,56
2017-03-08T11:51:48.066Z,56
2017-03-08T11:52:56.153Z,56
2017-03-08T11:54:04.241Z,56
2017-03-08T11:55:12.330Z,56
2017-03-08T11:56:20.423Z,56
2017-03-08T11:57:28.513Z,56
2017-03-08T11:58:36.601Z,56
2017-03-08T11:59:44.691Z,56
2017-03-08T12:00:52.784Z,56
2017-03-08T12:02:00.870Z,56
2017-03-08T12:03:08.959Z,52
2017-03-08T12:04:17.054Z,52
2017-03-08T12:05:25.141Z,52
2017-03-08T12:06:33.264Z,52
2017-03-08T12:07:41.319Z,48
2017-03-08T12:08:49.589Z,48
2017-03-08T12:09:57.495Z,48
2017-03-08T12:11:05.583Z,48
2017-03-08T12:12:13.671Z,48
2017-03-08T12:13:21.761Z,48
2017-03-08T12:14:29.848Z,48
2017-03-08T12:15:39.262Z,44
2017-03-08T12:16:46.038Z,48
2017-03-08T12:17:54.121Z,48
2017-03-08T12:19:02.216Z,48
2017-03-08T12:20:10.304Z,48
2017-03-08T12:21:18.399Z,44
2017-03-08T12:22:26.486Z,44
2017-03-08T12:23:34.578Z,40
2017-03-08T12:24:42.671Z,40
2017-03-08T12:25:50.748Z,40
2017-03-08T12:26:58.842Z,40
2017-03-08T12:28:06.929Z,40
2017-03-08T12:29:15.025Z,40
2017-03-08T12:30:23.109Z,40
2017-03-08T12:31:31.202Z,40
2017-03-08T12:32:39.286Z,40
2017-03-08T12:33:47.375Z,36
2017-03-08T12:34:55.469Z,36
2017-03-08T12:36:03.567Z,36
2017-03-08T12:37:11.654Z,36
2017-03-08T12:38:19.738Z,36
2017-03-08T12:39:27.834Z,32
2017-03-08T12:40:35.925Z,36
2017-03-08T12:41:44.017Z,40
2017-03-08T12:42:52.108Z,40
2017-03-08T12:44:00.195Z,40
2017-03-08T12:45:08.279Z,40
2017-03-08T12:46:16.368Z,40
2017-03-08T12:47:24.465Z,40
2017-03-08T12:48:32.552Z,36
2017-03-08T12:49:40.638Z,36
2017-03-08T12:50:48.731Z,28
2017-03-08T12:51:56.821Z,32
2017-03-08T12:53:04.909Z,36
2017-03-08T12:54:12.995Z,32
2017-03-08T12:55:21.088Z,36
2017-03-08T12:56:29.172Z,36
2017-03-08T12:57:37.259Z,36
2017-03-08T12:58:45.355Z,40
2017-03-08T12:59:53.442Z,40
2017-03-08T13:01:01.528Z,40
2017-03-08T13:02:09.621Z,40
2017-03-08T13:03:17.714Z,40
2017-03-08T13:04:25.801Z,32
2017-03-08T13:05:33.888Z,32
2017-03-08T13:06:41.980Z,28
2017-03-08T13:07:50.064Z,32
2017-03-08T13:08:58.152Z,28
2017-03-08T13:10:06.241Z,28
2017-03-08T13:11:14.331Z,28
2017-03-08T13:12:22.420Z,24
2017-03-08T13:13:30.506Z,24
2017-03-08T13:14:38.599Z,20
2017-03-08T13:15:46.689Z,20
2017-03-08T13:16:54.777Z,20
2017-03-08T13:18:02.868Z,20
2017-03-08T13:19:10.956Z,20
2017-03-08T13:20:19.039Z,20
2017-03-08T13:21:27.130Z,20
2017-03-08T13:22:35.228Z,20
2017-03-08T13:23:43.316Z,20
2017-03-08T13:24:51.403Z,20
2017-03-08T13:25:59.494Z,20
2017-03-08T13:27:07.586Z,20
2017-03-08T13:28:15.681Z,20
2017-03-08T13:29:23.771Z,20
2017-03-08T13:30:31.859Z,20
2017-03-08T13:31:39.950Z,16
2017-03-08T13:32:48.035Z,20
2017-03-08T13:33:56.129Z,16
2017-03-08T13:35:04.214Z,16
2017-03-08T13:36:12.304Z,16
2017-03-08T13:37:20.393Z,16
2017-03-08T13:38:28.488Z,16
2017-03-08T13:39:36.578Z,20
2017-03-08T13:40:44.667Z,20
2017-03-08T13:41:52.766Z,20
2017-03-08T13:43:00.859Z,20
2017-03-08T13:44:08.946Z,20
2017-03-08T13:45:17.040Z,16
2017-03-08T13:46:25.129Z,16
2017-03-08T13:47:33.222Z,16
2017-03-08T13:48:41.306Z,16
2017-03-08T13:49:49.397Z,16
2017-03-08T13:50:57.484Z,16
2017-03-08T13:52:05.575Z,16
2017-03-08T13:53:13.659Z,16
2017-03-08T13:54:21.754Z,16
2017-03-08T13:55:29.846Z,16
2017-03-08T13:56:37.927Z,16
2017-03-08T13:57:46.022Z,12
2017-03-08T13:58:54.112Z,16
2017-03-08T14:00:02.199Z,16
2017-03-08T14:01:10.287Z,16
2017-03-08T14:02:18.389Z,12
2017-03-08T14:03:26.480Z,12
2017-03-08T14:04:34.564Z,16
2017-03-08T14:05:42.654Z,16
2017-03-08T14:06:50.752Z,16
2017-03-08T14:07:58.839Z,16
2017-03-08T14:09:06.933Z,12
2017-03-08T14:10:15.021Z,12
2017-03-08T14:11:23.111Z,12
2017-03-08T14:12:31.197Z,12
2017-03-08T14:13:39.293Z,12
2017-03-08T14:14:47.389Z,12
2017-03-08T14:15:55.490Z,16
2017-03-08T14:17:03.581Z,16
2017-03-08T14:18:11.756Z,12
2017-03-08T14:19:19.752Z,12
2017-03-08T14:20:27.848Z,16
2017-03-08T14:21:35.940Z,16
2017-03-08T14:22:44.029Z,16
2017-03-08T14:23:52.115Z,12
2017-03-08T14:25:00.777Z,16
2017-03-08T14:26:08.300Z,12
2017-03-08T14:27:16.389Z,12
2017-03-08T14:28:24.476Z,12
2017-03-08T14:29:32.568Z,16
2017-03-08T14:30:40.676Z,12
2017-03-08T14:31:48.756Z,16
2017-03-08T14:32:56.850Z,16
2017-03-08T14:34:04.946Z,16
2017-03-08T14:35:13.099Z,16
2017-03-08T14:36:21.122Z,16
2017-03-08T14:37:29.214Z,16
2017-03-08T14:38:37.301Z,16
2017-03-08T14:39:45.393Z,16
2017-03-08T14:40:53.482Z,16
2017-03-08T14:42:01.571Z,16
2017-03-08T14:43:09.658Z,16
2017-03-08T14:44:17.746Z,16
2017-03-08T14:45:25.846Z,12
2017-03-08T14:46:33.938Z,12
2017-03-08T14:47:42.023Z,16
2017-03-08T14:48:50.116Z,16
2017-03-08T14:49:58.208Z,16
2017-03-08T14:51:06.302Z,16
2017-03-08T14:52:14.388Z,12
2017-03-08T14:53:22.482Z,12
2017-03-08T14:54:30.574Z,12
2017-03-08T14:55:39.094Z,12
2017-03-08T14:56:46.757Z,12
2017-03-08T14:57:54.846Z,12
2017-03-08T14:59:02.937Z,12
2017-03-08T15:00:11.020Z,12
2017-03-08T15:01:19.124Z,12
2017-03-08T15:02:27.202Z,16
2017-03-08T15:03:35.294Z,16
2017-03-08T15:04:43.382Z,12
2017-03-08T15:05:51.477Z,16
2017-03-08T15:06:59.562Z,12
2017-03-08T15:08:07.653Z,12
2017-03-08T15:09:15.744Z,8
2017-03-08T15:10:23.835Z,8
2017-03-08T15:11:31.927Z,8
2017-03-08T15:12:40.016Z,12
2017-03-08T15:13:48.106Z,12
2017-03-08T15:14:56.194Z,12
2017-03-08T15:16:04.283Z,12
2017-03-08T15:17:12.373Z,12
2017-03-08T15:18:20.470Z,12
2017-03-08T15:19:28.554Z,8
2017-03-08T15:20:36.651Z,8
2017-03-08T15:21:44.737Z,8
2017-03-08T15:22:52.819Z,4
2017-03-08T15:24:00.909Z,4
2017-03-08T15:25:09.001Z,4
2017-03-08T15:26:17.090Z,4
2017-03-08T15:27:25.175Z,8
2017-03-08T15:28:33.269Z,4
2017-03-08T15:29:41.364Z,4
2017-03-08T15:30:49.448Z,4
2017-03-08T15:31:57.543Z,4
2017-03-08T15:33:05.631Z,4
2017-03-08T15:34:13.719Z,4
2017-03-08T15:35:21.803Z,8
2017-03-08T15:36:29.895Z,4
2017-03-08T15:37:37.991Z,4
2017-03-08T15:38:46.079Z,4
2017-03-08T15:39:54.173Z,4
2017-03-08T15:41:02.256Z,4
2017-03-08T15:42:10.348Z,8
2017-03-08T15:43:18.438Z,4
2017-03-08T15:44:26.530Z,8
2017-03-08T15:45:34.618Z,4
2017-03-08T15:46:42.707Z,4
2017-03-08T15:47:50.799Z,4
2017-03-08T15:48:58.891Z,4
2017-03-08T15:50:06.979Z,0
2017-03-08T15:51:15.064Z,4
2017-03-08T15:52:23.160Z,4
2017-03-08T15:53:31.247Z,4
2017-03-08T15:54:39.343Z,4
2017-03-08T15:55:47.432Z,4
2017-03-08T15:56:55.519Z,0
2017-03-08T15:58:03.609Z,4
2017-03-08T15:59:11.695Z,4
2017-03-08T16:00:19.789Z,4
2017-03-08T16:01:27.882Z,4
2017-03-08T16:02:35.968Z,4
2017-03-08T16:03:44.058Z,0
2017-03-08T16:04:52.152Z,0
2017-03-08T16:06:00.246Z,0
2017-03-08T16:07:08.333Z,0
2017-03-08T16:08:16.427Z,0
2017-03-08T16:09:24.515Z,0
2017-03-08T16:10:32.602Z,0
2017-03-08T16:11:40.698Z,0
2017-03-08T16:12:48.783Z,0
2017-03-08T16:13:56.878Z,0
2017-03-08T16:15:04.968Z,0
2017-03-08T16:16:13.064Z,4
2017-03-08T16:17:21.167Z,0
2017-03-08T16:18:29.250Z,4
2017-03-08T16:19:37.341Z,4
2017-03-08T16:20:45.443Z,4
2017-03-08T16:21:53.526Z,4
2017-03-08T16:23:01.615Z,4
2017-03-08T16:24:09.715Z,4
2017-03-08T16:25:17.801Z,0
2017-03-08T16:26:25.890Z,4
2017-03-08T16:27:33.978Z,0
2017-03-08T16:28:42.068Z,0
2017-03-08T16:29:50.157Z,0
2017-03-08T16:30:58.250Z,0